Thorco Attraction — V2BS1 — position and weather

sailwx.info

Track history (hours):
 
Tides and Currents Weather Stations Pressure Air Temp Water Temp Dewpoint Dewpoint Depression Visibility Wind Speed Wind Dir Waves Ship Positions

Thorco Attraction

Last reported at 2017-Apr-20 09:16 UTC. Time now 2017-Apr-28 23:54 UTC.
Position N 26°21' W 119°49'.
Warning: this ship's position is 8 days out of date.

; draft 6.5 m.

Type: Ship. MMSI: 304908000.

Date/timePositionNaut miles runAvg speedWind from/ knotsBaromVisibWave heightAir tempDewpointWater temp
2017-Apr-20 09:16N 26°21' W 119°49'613.8
2017-Apr-20 08:50N 26°24' W 119°55'1613.7
2017-Apr-20 07:40N 26°31' W 120°11'4413.6
2017-Apr-20 04:28N 26°50' W 120°54'613.5
2017-Apr-20 04:00N 26°53' W 121°01'713.3
2017-Apr-20 03:30N 26°56' W 121°07'713.3
2017-Apr-20 03:00N 26°59' W 121°14'913.5
2017-Apr-20 02:22N 27°03' W 121°22'1813.5
2017-Apr-20 01:00N 27°12' W 121°41'19 8.4
2017-Apr-19 22:43N 27°21' W 122°00'613.5
2017-Apr-19 22:15N 27°23' W 122°06'313.6
2017-Apr-19 22:00N 27°25' W 122°10'  
Track history (hours):
 
Tides and Currents Weather Stations Pressure Air Temp Water Temp Dewpoint Dewpoint Depression Visibility Wind Speed Wind Dir Waves Ship Positions

Thorco Attraction

Last reported at 2017-Apr-20 09:16 UTC. Time now 2017-Apr-28 23:54 UTC.
Position N 26°21' W 119°49'.
Warning: this ship's position is 8 days out of date.

; draft 6.5 m.

Type: Ship. MMSI: 304908000.

Date/timePositionNaut miles runAvg speedWind from/ knotsBaromVisibWave heightAir tempDewpointWater temp
2017-Apr-20 09:16N 26°21' W 119°49'613.8
2017-Apr-20 08:50N 26°24' W 119°55'1613.7
2017-Apr-20 07:40N 26°31' W 120°11'4413.6
2017-Apr-20 04:28N 26°50' W 120°54'613.5
2017-Apr-20 04:00N 26°53' W 121°01'713.3
2017-Apr-20 03:30N 26°56' W 121°07'713.3
2017-Apr-20 03:00N 26°59' W 121°14'913.5
2017-Apr-20 02:22N 27°03' W 121°22'1813.5
2017-Apr-20 01:00N 27°12' W 121°41'19 8.4
2017-Apr-19 22:43N 27°21' W 122°00'613.5
2017-Apr-19 22:15N 27°23' W 122°06'313.6
2017-Apr-19 22:00N 27°25' W 122°10'  

Dump ship's entire track history